sensor_id;sensor_type;location;lat;lon;timestamp;P1;durP1;ratioP1;P2;durP2;ratioP2
4583;SDS011;2304;47.606;12.186;2022-08-11T00:03:56;4.90;;;2.70;;
4583;SDS011;2304;47.606;12.186;2022-08-11T00:09:02;8.20;;;2.80;;
4583;SDS011;2304;47.606;12.186;2022-08-11T00:14:12;4.33;;;2.80;;
4583;SDS011;2304;47.606;12.186;2022-08-11T00:19:19;4.80;;;3.50;;
4583;SDS011;2304;47.606;12.186;2022-08-11T00:24:24;4.40;;;3.13;;
4583;SDS011;2304;47.606;12.186;2022-08-11T00:29:35;4.80;;;2.77;;
4583;SDS011;2304;47.606;12.186;2022-08-11T00:34:37;4.50;;;3.47;;
4583;SDS011;2304;47.606;12.186;2022-08-11T00:39:43;3.27;;;2.97;;
4583;SDS011;2304;47.606;12.186;2022-08-11T00:44:54;4.13;;;3.40;;
4583;SDS011;2304;47.606;12.186;2022-08-11T00:50:08;3.77;;;3.20;;
4583;SDS011;2304;47.606;12.186;2022-08-11T01:01:12;4.10;;;2.97;;
4583;SDS011;2304;47.606;12.186;2022-08-11T01:12:08;6.37;;;2.80;;
4583;SDS011;2304;47.606;12.186;2022-08-11T01:17:46;3.77;;;2.80;;
4583;SDS011;2304;47.606;12.186;2022-08-11T01:29:03;4.10;;;3.17;;
4583;SDS011;2304;47.606;12.186;2022-08-11T01:40:38;3.70;;;3.20;;
4583;SDS011;2304;47.606;12.186;2022-08-11T01:45:54;4.07;;;3.27;;
4583;SDS011;2304;47.606;12.186;2022-08-11T01:51:18;4.40;;;3.70;;
4583;SDS011;2304;47.606;12.186;2022-08-11T01:56:48;3.13;;;2.77;;
4583;SDS011;2304;47.606;12.186;2022-08-11T02:07:49;3.60;;;3.00;;
4583;SDS011;2304;47.606;12.186;2022-08-11T02:13:00;5.43;;;3.20;;
4583;SDS011;2304;47.606;12.186;2022-08-11T02:18:14;6.27;;;3.23;;
4583;SDS011;2304;47.606;12.186;2022-08-11T02:23:24;3.90;;;3.00;;
4583;SDS011;2304;47.606;12.186;2022-08-11T02:28:54;3.53;;;3.03;;
4583;SDS011;2304;47.606;12.186;2022-08-11T02:34:05;3.63;;;3.07;;
4583;SDS011;2304;47.606;12.186;2022-08-11T02:39:14;5.00;;;3.50;;
4583;SDS011;2304;47.606;12.186;2022-08-11T02:44:23;8.63;;;3.40;;
4583;SDS011;2304;47.606;12.186;2022-08-11T02:49:35;7.30;;;3.70;;
4583;SDS011;2304;47.606;12.186;2022-08-11T02:55:03;3.63;;;3.07;;
4583;SDS011;2304;47.606;12.186;2022-08-11T03:00:16;7.83;;;3.30;;
4583;SDS011;2304;47.606;12.186;2022-08-11T03:05:24;3.93;;;3.30;;
4583;SDS011;2304;47.606;12.186;2022-08-11T03:10:34;4.20;;;3.40;;
4583;SDS011;2304;47.606;12.186;2022-08-11T03:15:47;7.03;;;3.60;;
4583;SDS011;2304;47.606;12.186;2022-08-11T03:21:12;7.63;;;3.47;;
4583;SDS011;2304;47.606;12.186;2022-08-11T03:26:22;4.63;;;3.23;;
4583;SDS011;2304;47.606;12.186;2022-08-11T03:31:31;3.70;;;3.23;;
4583;SDS011;2304;47.606;12.186;2022-08-11T03:42:09;4.13;;;3.50;;
4583;SDS011;2304;47.606;12.186;2022-08-11T03:53:15;6.73;;;3.40;;
4583;SDS011;2304;47.606;12.186;2022-08-11T03:58:30;3.83;;;3.50;;
4583;SDS011;2304;47.606;12.186;2022-08-11T04:15:11;4.20;;;3.30;;
4583;SDS011;2304;47.606;12.186;2022-08-11T04:20:42;4.03;;;3.40;;
4583;SDS011;2304;47.606;12.186;2022-08-11T04:26:20;4.20;;;3.63;;
4583;SDS011;2304;47.606;12.186;2022-08-11T04:31:39;6.37;;;3.50;;
4583;SDS011;2304;47.606;12.186;2022-08-11T04:37:10;5.10;;;3.40;;
4583;SDS011;2304;47.606;12.186;2022-08-11T04:42:46;4.67;;;3.87;;
4583;SDS011;2304;47.606;12.186;2022-08-11T04:54:25;6.07;;;4.30;;
4583;SDS011;2304;47.606;12.186;2022-08-11T05:00:00;6.00;;;4.77;;
4583;SDS011;2304;47.606;12.186;2022-08-11T05:05:27;8.63;;;4.97;;
4583;SDS011;2304;47.606;12.186;2022-08-11T05:16:17;8.23;;;5.30;;
4583;SDS011;2304;47.606;12.186;2022-08-11T05:21:50;7.73;;;4.93;;
4583;SDS011;2304;47.606;12.186;2022-08-11T05:27:13;9.77;;;6.60;;
4583;SDS011;2304;47.606;12.186;2022-08-11T05:32:34;6.43;;;5.60;;
4583;SDS011;2304;47.606;12.186;2022-08-11T05:37:57;5.50;;;4.73;;
4583;SDS011;2304;47.606;12.186;2022-08-11T05:43:18;10.93;;;7.57;;
4583;SDS011;2304;47.606;12.186;2022-08-11T05:48:39;8.00;;;5.90;;
4583;SDS011;2304;47.606;12.186;2022-08-11T05:54:02;5.50;;;4.80;;
4583;SDS011;2304;47.606;12.186;2022-08-11T05:59:25;8.40;;;4.90;;
4583;SDS011;2304;47.606;12.186;2022-08-11T06:04:28;8.13;;;5.30;;
4583;SDS011;2304;47.606;12.186;2022-08-11T06:09:33;7.30;;;5.03;;
4583;SDS011;2304;47.606;12.186;2022-08-11T06:14:40;9.67;;;6.40;;
4583;SDS011;2304;47.606;12.186;2022-08-11T06:19:46;8.50;;;5.60;;
4583;SDS011;2304;47.606;12.186;2022-08-11T06:24:52;6.80;;;5.80;;
4583;SDS011;2304;47.606;12.186;2022-08-11T06:29:57;10.53;;;5.90;;
4583;SDS011;2304;47.606;12.186;2022-08-11T06:35:10;5.70;;;5.07;;
4583;SDS011;2304;47.606;12.186;2022-08-11T06:40:24;6.37;;;5.77;;
4583;SDS011;2304;47.606;12.186;2022-08-11T06:45:31;8.30;;;5.00;;
4583;SDS011;2304;47.606;12.186;2022-08-11T06:50:40;7.20;;;5.60;;
4583;SDS011;2304;47.606;12.186;2022-08-11T06:56:07;9.90;;;5.10;;
4583;SDS011;2304;47.606;12.186;2022-08-11T07:01:32;5.93;;;4.87;;
4583;SDS011;2304;47.606;12.186;2022-08-11T07:06:52;6.43;;;4.00;;
4583;SDS011;2304;47.606;12.186;2022-08-11T07:17:58;5.20;;;4.40;;
4583;SDS011;2304;47.606;12.186;2022-08-11T07:23:21;6.23;;;4.33;;
4583;SDS011;2304;47.606;12.186;2022-08-11T07:28:44;6.30;;;3.87;;
4583;SDS011;2304;47.606;12.186;2022-08-11T07:34:00;6.20;;;3.93;;
4583;SDS011;2304;47.606;12.186;2022-08-11T07:39:14;6.47;;;4.30;;
4583;SDS011;2304;47.606;12.186;2022-08-11T07:44:21;4.53;;;4.00;;
4583;SDS011;2304;47.606;12.186;2022-08-11T07:49:28;6.03;;;4.20;;
4583;SDS011;2304;47.606;12.186;2022-08-11T07:54:50;5.37;;;4.40;;
4583;SDS011;2304;47.606;12.186;2022-08-11T07:59:54;5.10;;;3.80;;
4583;SDS011;2304;47.606;12.186;2022-08-11T08:05:15;20.47;;;4.60;;
4583;SDS011;2304;47.606;12.186;2022-08-11T08:10:35;6.00;;;3.70;;
4583;SDS011;2304;47.606;12.186;2022-08-11T08:15:57;5.00;;;3.80;;
4583;SDS011;2304;47.606;12.186;2022-08-11T08:21:16;10.23;;;3.97;;
4583;SDS011;2304;47.606;12.186;2022-08-11T08:26:18;10.03;;;3.87;;
4583;SDS011;2304;47.606;12.186;2022-08-11T08:31:39;13.77;;;4.40;;
4583;SDS011;2304;47.606;12.186;2022-08-11T08:36:43;6.30;;;3.87;;
4583;SDS011;2304;47.606;12.186;2022-08-11T08:41:47;5.27;;;3.90;;
4583;SDS011;2304;47.606;12.186;2022-08-11T08:46:55;5.10;;;3.90;;
4583;SDS011;2304;47.606;12.186;2022-08-11T08:52:00;7.27;;;3.73;;
4583;SDS011;2304;47.606;12.186;2022-08-11T08:57:04;4.30;;;3.83;;
4583;SDS011;2304;47.606;12.186;2022-08-11T09:02:09;6.93;;;3.67;;
4583;SDS011;2304;47.606;12.186;2022-08-11T09:07:13;6.10;;;4.10;;
4583;SDS011;2304;47.606;12.186;2022-08-11T09:12:17;6.10;;;3.90;;
4583;SDS011;2304;47.606;12.186;2022-08-11T09:17:22;7.13;;;3.60;;
4583;SDS011;2304;47.606;12.186;2022-08-11T09:22:26;3.60;;;3.30;;
4583;SDS011;2304;47.606;12.186;2022-08-11T09:27:50;5.77;;;3.40;;
4583;SDS011;2304;47.606;12.186;2022-08-11T09:32:57;6.27;;;3.67;;
4583;SDS011;2304;47.606;12.186;2022-08-11T09:38:01;8.00;;;3.53;;
4583;SDS011;2304;47.606;12.186;2022-08-11T09:43:22;3.40;;;3.10;;
4583;SDS011;2304;47.606;12.186;2022-08-11T09:48:44;4.47;;;3.00;;
4583;SDS011;2304;47.606;12.186;2022-08-11T09:53:47;6.90;;;3.63;;
4583;SDS011;2304;47.606;12.186;2022-08-11T09:58:50;6.13;;;3.77;;
4583;SDS011;2304;47.606;12.186;2022-08-11T10:03:55;7.63;;;3.17;;
4583;SDS011;2304;47.606;12.186;2022-08-11T10:09:01;5.70;;;3.50;;
4583;SDS011;2304;47.606;12.186;2022-08-11T10:14:06;5.20;;;3.37;;
4583;SDS011;2304;47.606;12.186;2022-08-11T10:19:28;5.57;;;3.77;;
4583;SDS011;2304;47.606;12.186;2022-08-11T10:24:32;7.73;;;3.50;;
4583;SDS011;2304;47.606;12.186;2022-08-11T10:29:52;10.20;;;3.73;;
4583;SDS011;2304;47.606;12.186;2022-08-11T10:35:14;4.27;;;3.20;;
4583;SDS011;2304;47.606;12.186;2022-08-11T10:40:18;10.57;;;3.73;;
4583;SDS011;2304;47.606;12.186;2022-08-11T10:45:22;5.83;;;3.20;;
4583;SDS011;2304;47.606;12.186;2022-08-11T10:50:45;7.57;;;3.40;;
4583;SDS011;2304;47.606;12.186;2022-08-11T10:56:06;4.80;;;3.40;;
4583;SDS011;2304;47.606;12.186;2022-08-11T11:01:27;8.63;;;4.43;;
4583;SDS011;2304;47.606;12.186;2022-08-11T11:06:58;5.67;;;3.63;;
4583;SDS011;2304;47.606;12.186;2022-08-11T11:12:06;4.00;;;3.20;;
4583;SDS011;2304;47.606;12.186;2022-08-11T11:17:31;7.17;;;3.10;;
4583;SDS011;2304;47.606;12.186;2022-08-11T11:23:01;5.27;;;3.10;;
4583;SDS011;2304;47.606;12.186;2022-08-11T11:28:10;3.70;;;3.30;;
4583;SDS011;2304;47.606;12.186;2022-08-11T11:33:26;5.77;;;3.37;;
4583;SDS011;2304;47.606;12.186;2022-08-11T11:38:41;5.10;;;3.40;;
4583;SDS011;2304;47.606;12.186;2022-08-11T11:43:44;4.27;;;3.40;;
4583;SDS011;2304;47.606;12.186;2022-08-11T11:48:47;4.30;;;3.43;;
4583;SDS011;2304;47.606;12.186;2022-08-11T11:53:51;5.30;;;3.50;;
4583;SDS011;2304;47.606;12.186;2022-08-11T11:58:53;4.70;;;3.20;;
4583;SDS011;2304;47.606;12.186;2022-08-11T12:04:14;4.22;;;3.30;;
4583;SDS011;2304;47.606;12.186;2022-08-11T12:09:19;4.22;;;3.30;;
4583;SDS011;2304;47.606;12.186;2022-08-11T12:14:22;4.93;;;3.15;;
4583;SDS011;2304;47.606;12.186;2022-08-11T12:19:26;4.87;;;3.22;;
4583;SDS011;2304;47.606;12.186;2022-08-11T12:24:30;4.53;;;3.00;;
4583;SDS011;2304;47.606;12.186;2022-08-11T12:29:53;4.43;;;3.47;;
4583;SDS011;2304;47.606;12.186;2022-08-11T12:34:57;6.53;;;3.37;;
4583;SDS011;2304;47.606;12.186;2022-08-11T12:40:02;3.65;;;3.22;;
4583;SDS011;2304;47.606;12.186;2022-08-11T12:45:25;7.97;;;3.40;;
4583;SDS011;2304;47.606;12.186;2022-08-11T12:50:27;4.93;;;3.33;;
4583;SDS011;2304;47.606;12.186;2022-08-11T12:55:49;5.68;;;3.28;;
4583;SDS011;2304;47.606;12.186;2022-08-11T13:01:10;6.78;;;3.03;;
4583;SDS011;2304;47.606;12.186;2022-08-11T13:06:31;3.42;;;2.85;;
4583;SDS011;2304;47.606;12.186;2022-08-11T13:11:34;4.00;;;3.40;;
4583;SDS011;2304;47.606;12.186;2022-08-11T13:16:54;4.20;;;3.23;;
4583;SDS011;2304;47.606;12.186;2022-08-11T13:22:15;3.60;;;3.12;;
4583;SDS011;2304;47.606;12.186;2022-08-11T13:27:19;5.05;;;2.85;;
4583;SDS011;2304;47.606;12.186;2022-08-11T13:32:22;4.90;;;2.95;;
4583;SDS011;2304;47.606;12.186;2022-08-11T13:37:25;10.85;;;3.10;;
4583;SDS011;2304;47.606;12.186;2022-08-11T13:42:28;4.65;;;3.00;;
4583;SDS011;2304;47.606;12.186;2022-08-11T13:47:30;6.43;;;3.40;;
4583;SDS011;2304;47.606;12.186;2022-08-11T13:52:33;6.43;;;2.93;;
4583;SDS011;2304;47.606;12.186;2022-08-11T13:57:39;4.97;;;2.80;;
4583;SDS011;2304;47.606;12.186;2022-08-11T14:02:42;8.27;;;3.33;;
4583;SDS011;2304;47.606;12.186;2022-08-11T14:07:47;4.63;;;2.83;;
4583;SDS011;2304;47.606;12.186;2022-08-11T14:12:54;7.37;;;3.05;;
4583;SDS011;2304;47.606;12.186;2022-08-11T14:18:17;3.90;;;3.10;;
4583;SDS011;2304;47.606;12.186;2022-08-11T14:23:24;9.17;;;3.40;;
4583;SDS011;2304;47.606;12.186;2022-08-11T14:28:31;6.53;;;2.83;;
4583;SDS011;2304;47.606;12.186;2022-08-11T14:33:34;6.60;;;3.00;;
4583;SDS011;2304;47.606;12.186;2022-08-11T14:38:37;4.73;;;2.93;;
4583;SDS011;2304;47.606;12.186;2022-08-11T14:43:43;5.33;;;2.83;;
4583;SDS011;2304;47.606;12.186;2022-08-11T14:49:09;3.27;;;2.53;;
4583;SDS011;2304;47.606;12.186;2022-08-11T14:54:14;4.37;;;2.63;;
4583;SDS011;2304;47.606;12.186;2022-08-11T14:59:35;3.50;;;2.77;;
4583;SDS011;2304;47.606;12.186;2022-08-11T15:04:38;4.70;;;2.70;;
4583;SDS011;2304;47.606;12.186;2022-08-11T15:09:40;13.00;;;2.57;;
4583;SDS011;2304;47.606;12.186;2022-08-11T15:14:44;3.57;;;2.90;;
4583;SDS011;2304;47.606;12.186;2022-08-11T15:20:05;4.10;;;2.70;;
4583;SDS011;2304;47.606;12.186;2022-08-11T15:25:27;3.67;;;2.83;;
4583;SDS011;2304;47.606;12.186;2022-08-11T15:30:35;6.50;;;2.73;;
4583;SDS011;2304;47.606;12.186;2022-08-11T15:35:55;3.50;;;2.87;;
4583;SDS011;2304;47.606;12.186;2022-08-11T15:41:15;3.10;;;2.53;;
4583;SDS011;2304;47.606;12.186;2022-08-11T15:46:39;4.60;;;2.60;;
4583;SDS011;2304;47.606;12.186;2022-08-11T15:51:44;11.10;;;2.90;;
4583;SDS011;2304;47.606;12.186;2022-08-11T15:56:49;3.20;;;2.70;;
4583;SDS011;2304;47.606;12.186;2022-08-11T16:01:55;4.57;;;2.40;;
4583;SDS011;2304;47.606;12.186;2022-08-11T16:07:17;4.17;;;2.77;;
4583;SDS011;2304;47.606;12.186;2022-08-11T16:12:25;5.40;;;2.70;;
4583;SDS011;2304;47.606;12.186;2022-08-11T16:17:33;3.20;;;2.50;;
4583;SDS011;2304;47.606;12.186;2022-08-11T16:22:37;3.60;;;2.23;;
4583;SDS011;2304;47.606;12.186;2022-08-11T16:27:44;7.67;;;2.63;;
4583;SDS011;2304;47.606;12.186;2022-08-11T16:32:49;4.50;;;2.70;;
4583;SDS011;2304;47.606;12.186;2022-08-11T16:37:53;4.13;;;2.87;;
4583;SDS011;2304;47.606;12.186;2022-08-11T16:43:16;3.40;;;2.60;;
4583;SDS011;2304;47.606;12.186;2022-08-11T16:48:38;6.80;;;2.57;;
4583;SDS011;2304;47.606;12.186;2022-08-11T16:53:42;4.20;;;2.73;;
4583;SDS011;2304;47.606;12.186;2022-08-11T16:58:45;4.80;;;2.77;;
4583;SDS011;2304;47.606;12.186;2022-08-11T17:04:16;4.67;;;2.80;;
4583;SDS011;2304;47.606;12.186;2022-08-11T17:09:47;3.30;;;2.23;;
4583;SDS011;2304;47.606;12.186;2022-08-11T17:15:11;4.23;;;2.60;;
4583;SDS011;2304;47.606;12.186;2022-08-11T17:20:30;5.77;;;2.80;;
4583;SDS011;2304;47.606;12.186;2022-08-11T17:25:33;6.20;;;3.10;;
4583;SDS011;2304;47.606;12.186;2022-08-11T17:30:36;6.13;;;2.90;;
4583;SDS011;2304;47.606;12.186;2022-08-11T17:35:59;5.77;;;3.10;;
4583;SDS011;2304;47.606;12.186;2022-08-11T17:41:02;13.63;;;2.73;;
4583;SDS011;2304;47.606;12.186;2022-08-11T17:46:22;5.57;;;2.80;;
4583;SDS011;2304;47.606;12.186;2022-08-11T17:51:44;4.23;;;2.33;;
4583;SDS011;2304;47.606;12.186;2022-08-11T17:57:05;5.00;;;3.07;;
4583;SDS011;2304;47.606;12.186;2022-08-11T18:02:27;4.13;;;3.07;;
4583;SDS011;2304;47.606;12.186;2022-08-11T18:07:50;6.70;;;2.90;;
4583;SDS011;2304;47.606;12.186;2022-08-11T18:13:12;3.30;;;2.80;;
4583;SDS011;2304;47.606;12.186;2022-08-11T18:18:32;4.83;;;3.00;;
4583;SDS011;2304;47.606;12.186;2022-08-11T18:23:53;3.40;;;3.00;;
4583;SDS011;2304;47.606;12.186;2022-08-11T18:29:13;5.13;;;2.80;;
4583;SDS011;2304;47.606;12.186;2022-08-11T18:34:36;4.97;;;3.00;;
4583;SDS011;2304;47.606;12.186;2022-08-11T18:40:01;3.70;;;3.27;;
4583;SDS011;2304;47.606;12.186;2022-08-11T18:45:23;4.30;;;3.07;;
4583;SDS011;2304;47.606;12.186;2022-08-11T18:50:42;3.40;;;3.07;;
4583;SDS011;2304;47.606;12.186;2022-08-11T18:56:04;4.97;;;3.23;;
4583;SDS011;2304;47.606;12.186;2022-08-11T19:01:24;4.50;;;3.00;;
4583;SDS011;2304;47.606;12.186;2022-08-11T19:06:46;4.40;;;3.20;;
4583;SDS011;2304;47.606;12.186;2022-08-11T19:12:08;8.83;;;3.40;;
4583;SDS011;2304;47.606;12.186;2022-08-11T19:17:29;10.80;;;3.60;;
4583;SDS011;2304;47.606;12.186;2022-08-11T19:22:50;7.70;;;3.43;;
4583;SDS011;2304;47.606;12.186;2022-08-11T19:28:13;7.53;;;3.50;;
4583;SDS011;2304;47.606;12.186;2022-08-11T19:33:35;4.80;;;3.27;;
4583;SDS011;2304;47.606;12.186;2022-08-11T19:38:55;6.50;;;3.57;;
4583;SDS011;2304;47.606;12.186;2022-08-11T19:44:17;6.07;;;3.53;;
4583;SDS011;2304;47.606;12.186;2022-08-11T19:49:40;5.93;;;4.00;;
4583;SDS011;2304;47.606;12.186;2022-08-11T19:55:01;9.03;;;3.67;;
4583;SDS011;2304;47.606;12.186;2022-08-11T20:00:22;11.33;;;4.47;;
4583;SDS011;2304;47.606;12.186;2022-08-11T20:05:42;4.90;;;3.70;;
4583;SDS011;2304;47.606;12.186;2022-08-11T20:11:03;11.40;;;8.17;;
4583;SDS011;2304;47.606;12.186;2022-08-11T20:16:25;10.23;;;4.67;;
4583;SDS011;2304;47.606;12.186;2022-08-11T20:21:45;7.23;;;4.63;;
4583;SDS011;2304;47.606;12.186;2022-08-11T20:27:05;4.50;;;3.70;;
4583;SDS011;2304;47.606;12.186;2022-08-11T20:32:28;5.13;;;3.53;;
4583;SDS011;2304;47.606;12.186;2022-08-11T20:37:48;5.00;;;3.70;;
4583;SDS011;2304;47.606;12.186;2022-08-11T20:43:11;6.70;;;3.50;;
4583;SDS011;2304;47.606;12.186;2022-08-11T20:48:33;5.00;;;3.27;;
4583;SDS011;2304;47.606;12.186;2022-08-11T20:53:53;6.33;;;3.50;;
4583;SDS011;2304;47.606;12.186;2022-08-11T20:59:16;5.53;;;3.60;;
4583;SDS011;2304;47.606;12.186;2022-08-11T21:04:39;5.10;;;3.17;;
4583;SDS011;2304;47.606;12.186;2022-08-11T21:09:59;4.40;;;3.67;;
4583;SDS011;2304;47.606;12.186;2022-08-11T21:15:20;5.67;;;4.27;;
4583;SDS011;2304;47.606;12.186;2022-08-11T21:20:43;8.13;;;3.97;;
4583;SDS011;2304;47.606;12.186;2022-08-11T21:26:05;5.90;;;4.47;;
4583;SDS011;2304;47.606;12.186;2022-08-11T21:31:25;7.47;;;4.00;;
4583;SDS011;2304;47.606;12.186;2022-08-11T21:36:49;7.70;;;4.00;;
4583;SDS011;2304;47.606;12.186;2022-08-11T21:42:09;18.97;;;3.97;;
4583;SDS011;2304;47.606;12.186;2022-08-11T21:47:29;7.50;;;3.80;;
4583;SDS011;2304;47.606;12.186;2022-08-11T21:52:51;5.43;;;3.67;;
4583;SDS011;2304;47.606;12.186;2022-08-11T21:58:11;7.97;;;3.40;;
4583;SDS011;2304;47.606;12.186;2022-08-11T22:03:31;6.33;;;3.70;;
4583;SDS011;2304;47.606;12.186;2022-08-11T22:08:53;6.40;;;3.73;;
4583;SDS011;2304;47.606;12.186;2022-08-11T22:14:13;3.50;;;3.20;;
4583;SDS011;2304;47.606;12.186;2022-08-11T22:19:32;7.10;;;3.70;;
4583;SDS011;2304;47.606;12.186;2022-08-11T22:24:55;6.00;;;3.73;;
4583;SDS011;2304;47.606;12.186;2022-08-11T22:30:15;4.93;;;3.83;;
4583;SDS011;2304;47.606;12.186;2022-08-11T22:35:34;15.50;;;3.93;;
4583;SDS011;2304;47.606;12.186;2022-08-11T22:40:58;5.03;;;3.80;;
4583;SDS011;2304;47.606;12.186;2022-08-11T22:46:17;7.00;;;3.60;;
4583;SDS011;2304;47.606;12.186;2022-08-11T22:51:38;5.17;;;3.40;;
4583;SDS011;2304;47.606;12.186;2022-08-11T22:57:02;6.10;;;3.93;;
4583;SDS011;2304;47.606;12.186;2022-08-11T23:02:22;5.83;;;3.67;;
4583;SDS011;2304;47.606;12.186;2022-08-11T23:07:45;4.90;;;3.70;;
4583;SDS011;2304;47.606;12.186;2022-08-11T23:13:06;5.07;;;3.87;;
4583;SDS011;2304;47.606;12.186;2022-08-11T23:18:26;4.20;;;3.13;;
4583;SDS011;2304;47.606;12.186;2022-08-11T23:23:47;4.33;;;3.60;;
4583;SDS011;2304;47.606;12.186;2022-08-11T23:29:09;4.50;;;3.90;;
4583;SDS011;2304;47.606;12.186;2022-08-11T23:34:31;5.17;;;3.57;;
4583;SDS011;2304;47.606;12.186;2022-08-11T23:39:53;5.37;;;3.80;;
4583;SDS011;2304;47.606;12.186;2022-08-11T23:45:14;6.53;;;4.00;;
4583;SDS011;2304;47.606;12.186;2022-08-11T23:50:34;4.03;;;3.50;;
4583;SDS011;2304;47.606;12.186;2022-08-11T23:55:54;8.20;;;3.90;;
